Time;durP1;ratioP1;P1;durP2;ratioP2;P2;SDS_P1;SDS_P2;PMS_P1;PMS_P2;Temp;Humidity;BMP_temperature;BMP_pressure;BME280_temperature;BME280_humidity;BME280_pressure;Samples;Min_cycle;Max_cycle;Signal;HPM_P1;HPM_P2
2023/08/06 00:00:28;;;;;;;9.60;5.67;;;16.30;1.00;;;;;;5039008;28;20431;-80
2023/08/06 00:03:40;;;;;;;7.80;5.13;;;16.30;1.00;;;;;;5054335;28;20491;-80
2023/08/06 00:06:58;;;;;;;14.80;5.87;;;16.20;1.00;;;;;;5054665;28;20403;-80
2023/08/06 00:09:23;;;;;;;8.13;5.40;;;16.30;1.70;;;;;;5047946;28;20444;-80
2023/08/06 00:15:11;;;;;;;11.90;6.10;;;16.30;3.30;;;;;;5034906;28;20161;-81
2023/08/06 00:21:34;;;;;;;14.17;6.03;;;16.40;8.10;;;;;;5053743;28;20515;-80
2023/08/06 00:24:34;;;;;;;14.80;6.93;;;16.40;8.30;;;;;;5040689;28;20432;-80
2023/08/06 00:30:21;;;;;;;14.40;5.40;;;16.40;7.60;;;;;;5054567;28;20383;-80
2023/08/06 00:39:31;;;;;;;9.97;5.90;;;16.50;9.00;;;;;;5041409;28;20971;-80
2023/08/06 00:45:19;;;;;;;15.10;6.77;;;16.50;8.70;;;;;;5049423;28;20238;-80
2023/08/06 00:48:22;;;;;;;6.87;4.97;;;16.40;6.50;;;;;;5053996;28;20423;-81
2023/08/06 00:51:40;;;;;;;12.00;6.77;;;16.50;5.20;;;;;;5040054;28;20172;-80
2023/08/06 01:00:49;;;;;;;5.87;4.67;;;16.50;3.90;;;;;;5044243;28;20401;-80
2023/08/06 01:03:16;;;;;;;8.57;4.90;;;16.50;4.80;;;;;;5053439;28;20502;-81
2023/08/06 01:06:04;;;;;;;7.70;4.93;;;16.50;3.80;;;;;;5046855;28;20208;-80
2023/08/06 01:12:04;;;;;;;13.60;6.27;;;16.50;2.80;;;;;;5047147;28;20406;-80
2023/08/06 01:17:52;;;;;;;13.33;5.10;;;16.50;2.90;;;;;;5050360;28;20945;-80
2023/08/06 01:23:40;;;;;;;17.40;4.90;;;16.60;3.90;;;;;;5049419;28;20435;-80
2023/08/06 01:32:57;;;;;;;7.83;5.20;;;16.60;4.30;;;;;;5053243;28;20399;-80
2023/08/06 01:36:10;;;;;;;6.23;4.80;;;16.60;5.00;;;;;;5053259;28;20436;-80
2023/08/06 01:45:46;;;;;;;13.93;5.00;;;16.70;1.90;;;;;;5045481;28;20400;-80
2023/08/06 01:51:33;;;;;;;5.90;4.30;;;16.70;2.20;;;;;;5057175;28;20398;-80
2023/08/06 02:00:43;;;;;;;15.97;5.40;;;16.70;1.30;;;;;;5056858;28;20439;-80
2023/08/06 02:03:10;;;;;;;7.83;4.40;;;16.80;1.60;;;;;;5053536;28;20463;-80
2023/08/06 02:08:57;;;;;;;7.30;4.23;;;16.80;1.00;;;;;;5047275;28;20406;-80
2023/08/06 02:11:23;;;;;;;10.53;4.70;;;16.90;1.00;;;;;;5055727;28;20433;-80
2023/08/06 02:13:49;;;;;;;5.20;4.10;;;16.80;1.00;;;;;;5053775;28;20213;-81
2023/08/06 02:16:14;;;;;;;8.13;5.23;;;16.90;1.00;;;;;;5052282;28;20169;-80
2023/08/06 02:18:46;;;;;;;7.70;5.13;;;16.90;1.00;;;;;;5045691;28;20186;-82
2023/08/06 02:21:16;;;;;;;8.30;4.90;;;16.80;1.00;;;;;;5052166;28;20605;-80
2023/08/06 02:24:04;;;;;;;11.40;4.50;;;16.90;1.00;;;;;;5040727;28;20459;-80
2023/08/06 02:30:22;;;;;;;7.23;4.60;;;16.70;1.00;;;;;;5046517;28;20496;-80
2023/08/06 02:32:52;;;;;;;5.53;4.20;;;16.70;1.00;;;;;;5056590;28;20412;-81
2023/08/06 02:38:40;;;;;;;6.40;4.80;;;16.60;1.00;;;;;;5039385;28;20448;-80
2023/08/06 02:44:28;;;;;;;11.03;4.20;;;16.60;1.00;;;;;;5049045;28;20180;-80
2023/08/06 02:51:04;;;;;;;6.93;4.20;;;16.60;1.00;;;;;;5047197;28;20419;-81
2023/08/06 02:57:25;;;;;;;16.33;3.93;;;16.50;1.00;;;;;;5056103;28;20802;-82
2023/08/06 03:06:35;;;;;;;4.83;3.47;;;16.60;1.00;;;;;;5056337;28;20381;-85
2023/08/06 03:09:17;;;;;;;7.83;3.57;;;16.40;1.00;;;;;;5044465;28;20453;-85
2023/08/06 03:12:10;;;;;;;11.63;4.10;;;16.80;1.00;;;;;;5048143;28;20277;-86
2023/08/06 03:14:46;;;;;;;4.97;3.70;;;16.40;1.00;;;;;;5048137;28;20416;-86
2023/08/06 03:17:12;;;;;;;12.30;3.87;;;16.40;1.00;;;;;;5055308;28;20957;-85
2023/08/06 03:19:40;;;;;;;8.10;4.10;;;16.40;1.00;;;;;;5056195;28;20403;-86
2023/08/06 03:22:40;;;;;;;7.63;3.57;;;16.40;1.00;;;;;;5053315;28;20568;-85
2023/08/06 03:25:06;;;;;;;12.73;4.07;;;16.40;1.00;;;;;;5048551;28;20502;-85
2023/08/06 03:28:10;;;;;;;4.20;3.33;;;16.40;1.00;;;;;;5051401;28;20451;-86
2023/08/06 03:33:57;;;;;;;4.47;3.23;;;16.50;1.00;;;;;;5049174;28;20446;-81
2023/08/06 03:37:16;;;;;;;6.53;4.00;;;16.50;1.00;;;;;;5035395;28;20887;-81
2023/08/06 03:43:04;;;;;;;8.80;3.40;;;16.50;1.00;;;;;;5049167;28;20503;-80
2023/08/06 03:45:30;;;;;;;6.90;3.00;;;16.40;1.00;;;;;;5047476;28;20924;-85
2023/08/06 03:47:56;;;;;;;3.67;3.37;;;16.30;1.00;;;;;;5053730;28;20423;-85
2023/08/06 03:50:41;;;;;;;7.10;3.07;;;16.30;1.00;;;;;;5071035;28;20177;-85
2023/08/06 03:53:16;;;;;;;4.77;3.50;;;16.20;1.00;;;;;;5071265;28;20513;-84
2023/08/06 03:59:04;;;;;;;8.53;2.90;;;16.20;1.00;;;;;;5035427;28;20379;-85
2023/08/06 04:05:16;;;;;;;8.20;2.97;;;16.20;1.00;;;;;;5048464;28;20243;-85
2023/08/06 04:11:58;;;;;;;7.13;2.87;;;16.00;1.00;;;;;;5052515;28;20441;-85
2023/08/06 04:21:08;;;;;;;6.80;2.60;;;16.00;1.00;;;;;;5047051;28;20477;-80
2023/08/06 04:23:46;;;;;;;10.40;3.20;;;16.00;1.00;;;;;;5037520;28;20426;-79
2023/08/06 04:26:22;;;;;;;5.60;3.03;;;16.00;1.00;;;;;;5045866;28;20227;-80
2023/08/06 04:32:10;;;;;;;5.20;2.37;;;16.00;1.00;;;;;;5054661;28;20410;-80
2023/08/06 04:34:37;;;;;;;4.60;2.60;;;16.10;1.00;;;;;;5054078;28;20386;-79
2023/08/06 04:37:36;;;;;;;5.30;2.70;;;16.10;1.00;;;;;;5054341;28;20410;-80
2023/08/06 04:43:24;;;;;;;7.00;2.80;;;16.10;1.00;;;;;;5053874;28;20547;-79
2023/08/06 04:45:51;;;;;;;8.13;2.50;;;16.10;1.00;;;;;;5051035;28;20509;-84
2023/08/06 04:48:17;;;;;;;12.50;2.63;;;16.10;1.00;;;;;;5053186;28;20549;-80
2023/08/06 04:50:47;;;;;;;4.87;2.37;;;16.10;1.00;;;;;;5049668;28;20524;-80
2023/08/06 04:53:22;;;;;;;14.13;2.00;;;16.20;1.00;;;;;;5048480;28;20795;-80
2023/08/06 04:55:58;;;;;;;6.53;2.10;;;16.10;1.00;;;;;;5046442;28;20580;-80
2023/08/06 05:01:46;;;;;;;4.60;1.80;;;16.20;1.00;;;;;;5053076;28;20436;-80
2023/08/06 05:04:40;;;;;;;1.90;1.40;;;16.20;1.00;;;;;;5052926;28;20405;-79
2023/08/06 05:07:34;;;;;;;1.80;1.50;;;16.20;1.00;;;;;;5045961;28;20181;-80
2023/08/06 05:10:52;;;;;;;3.10;2.00;;;16.20;1.00;;;;;;5052604;28;20918;-79
2023/08/06 05:16:39;;;;;;;4.77;2.47;;;16.20;1.00;;;;;;5044103;28;20755;-80
2023/08/06 05:19:05;;;;;;;3.90;2.03;;;16.10;1.00;;;;;;5048349;28;20397;-80
2023/08/06 05:31:36;;;;;;;1.77;1.67;;;16.10;1.00;;;;;;5053967;28;20370;-80
2023/08/06 05:34:52;;;;;;;2.03;1.37;;;16.20;1.00;;;;;;5045656;28;20430;-80
2023/08/06 05:37:28;;;;;;;2.77;1.60;;;16.10;1.00;;;;;;5039945;28;20264;-80
2023/08/06 05:40:34;;;;;;;1.73;1.40;;;16.20;1.00;;;;;;5053361;28;20418;-80
2023/08/06 05:53:05;;;;;;;3.07;2.10;;;16.20;1.60;;;;;;5046583;28;20456;-85
2023/08/06 05:55:35;;;;;;;1.60;1.50;;;16.30;1.00;;;;;;5049154;28;20405;-85
2023/08/06 06:01:23;;;;;;;4.37;1.73;;;16.50;1.00;;;;;;5053482;28;20994;-86
2023/08/06 06:07:10;;;;;;;7.03;1.43;;;16.50;1.00;;;;;;5052965;28;20193;-80
2023/08/06 06:10:04;;;;;;;4.93;1.90;;;16.60;1.00;;;;;;5050792;28;20424;-80
2023/08/06 06:12:34;;;;;;;1.90;1.30;;;16.60;1.00;;;;;;5045876;28;20662;-80
2023/08/06 06:15:05;;;;;;;2.87;1.40;;;16.60;1.00;;;;;;5045607;28;20434;-79
2023/08/06 06:24:34;;;;;;;1.20;0.90;;;16.50;1.00;;;;;;5039812;28;20424;-87
2023/08/06 06:30:21;;;;;;;1.00;0.80;;;16.50;1.00;;;;;;5046636;28;20468;-88
2023/08/06 06:39:31;;;;;;;1.00;0.87;;;16.70;1.00;;;;;;5045751;28;20884;-87
2023/08/06 06:42:34;;;;;;;3.00;1.13;;;16.90;1.00;;;;;;5051113;28;20558;-87
2023/08/06 06:45:34;;;;;;;3.67;0.90;;;17.10;1.00;;;;;;5055384;28;20198;-86
2023/08/06 06:48:04;;;;;;;2.00;0.73;;;17.10;1.00;;;;;;5036682;28;20489;-87
2023/08/06 06:54:34;;;;;;;2.30;1.07;;;17.30;1.00;;;;;;5056663;28;20496;-87
2023/08/06 07:00:40;;;;;;;5.00;1.20;;;17.40;1.00;;;;;;5049149;28;20427;-86
2023/08/06 07:06:52;;;;;;;0.60;0.60;;;17.30;1.00;;;;;;5045351;28;20503;-87
2023/08/06 07:09:35;;;;;;;2.10;0.70;;;17.30;1.00;;;;;;5049577;28;21089;-88
2023/08/06 07:12:28;;;;;;;5.03;0.80;;;17.20;1.00;;;;;;5055672;28;20430;-88
2023/08/06 07:15:34;;;;;;;1.43;0.80;;;17.20;1.00;;;;;;5055522;28;20435;-87
2023/08/06 07:18:00;;;;;;;4.20;0.80;;;17.00;1.00;;;;;;5041656;28;20427;-79
2023/08/06 07:20:25;;;;;;;0.60;0.60;;;17.00;1.00;;;;;;5053514;28;20492;-80
2023/08/06 07:22:51;;;;;;;0.70;0.70;;;16.80;1.00;;;;;;5040208;28;20279;-79
2023/08/06 07:25:22;;;;;;;0.90;0.70;;;16.60;1.00;;;;;;5054321;28;20170;-79
2023/08/06 07:27:52;;;;;;;1.43;0.60;;;16.50;1.00;;;;;;5038193;28;20286;-80
2023/08/06 07:30:28;;;;;;;0.90;0.60;;;16.50;1.00;;;;;;5048323;28;20430;-80
2023/08/06 07:33:04;;;;;;;1.00;0.53;;;16.30;1.00;;;;;;5047950;28;20514;-81
2023/08/06 07:36:07;;;;;;;1.50;0.80;;;16.40;1.00;;;;;;5057127;28;21013;-81
2023/08/06 07:38:55;;;;;;;1.13;0.50;;;16.50;1.00;;;;;;5055203;28;20451;-81
2023/08/06 07:44:59;;;;;;;2.70;0.90;;;16.70;1.00;;;;;;5054556;28;20985;-80
2023/08/06 07:47:40;;;;;;;1.90;0.93;;;17.10;1.00;;;;;;5053279;28;20420;-80
2023/08/06 07:56:58;;;;;;;2.30;0.70;;;17.10;1.00;;;;;;5047360;28;20422;-81
2023/08/06 07:59:34;;;;;;;1.20;0.70;;;17.00;1.00;;;;;;5053312;28;20897;-80
2023/08/06 08:02:34;;;;;;;5.67;1.53;;;17.00;1.00;;;;;;5051815;28;20962;-79
2023/08/06 08:05:07;;;;;;;1.13;0.70;;;16.80;1.00;;;;;;5055743;28;20402;-88
2023/08/06 08:08:04;;;;;;;1.30;0.80;;;16.80;1.00;;;;;;5054195;28;20562;-88
2023/08/06 08:10:31;;;;;;;1.17;0.60;;;17.00;1.00;;;;;;5046090;28;20383;-88
2023/08/06 08:16:34;;;;;;;0.73;0.73;;;17.40;1.00;;;;;;5045323;28;20436;-88
2023/08/06 08:19:04;;;;;;;4.30;0.83;;;17.60;1.00;;;;;;5051955;28;20747;-79
2023/08/06 08:21:52;;;;;;;0.57;0.57;;;17.90;1.00;;;;;;5039903;28;20513;-79
2023/08/06 08:24:19;;;;;;;1.07;0.70;;;18.10;1.00;;;;;;5054494;28;20485;-79
2023/08/06 08:27:05;;;;;;;3.20;0.73;;;18.00;1.00;;;;;;5054151;28;20797;-80
2023/08/06 08:29:34;;;;;;;0.87;0.80;;;18.00;1.00;;;;;;5054311;28;20416;-79
2023/08/06 08:32:34;;;;;;;2.40;0.80;;;18.50;1.00;;;;;;5045340;28;20808;-78
2023/08/06 08:35:34;;;;;;;5.90;0.80;;;19.10;1.00;;;;;;5038059;28;20425;-88
2023/08/06 08:41:38;;;;;;;0.60;0.60;;;19.30;1.00;;;;;;5034808;28;20467;-88
2023/08/06 08:44:08;;;;;;;0.60;0.60;;;19.40;1.00;;;;;;5042669;28;20426;-87
2023/08/06 08:46:36;;;;;;;1.80;0.70;;;19.50;1.00;;;;;;5045874;28;21009;-88
2023/08/06 08:49:35;;;;;;;1.63;0.90;;;19.40;1.00;;;;;;5040453;28;20573;-88
2023/08/06 08:52:35;;;;;;;1.27;0.70;;;19.60;1.00;;;;;;5035748;28;20454;-88
2023/08/06 08:55:06;;;;;;;2.80;0.80;;;19.80;1.00;;;;;;5042754;28;20436;-88
2023/08/06 08:57:35;;;;;;;1.13;0.80;;;19.80;1.00;;;;;;5042513;28;20449;-87
2023/08/06 09:00:35;;;;;;;0.97;0.70;;;20.10;1.00;;;;;;5036753;28;20435;-87
2023/08/06 09:03:06;;;;;;;1.03;0.77;;;20.60;1.00;;;;;;5046772;28;20463;-87
2023/08/06 09:05:35;;;;;;;0.80;0.70;;;20.80;1.00;;;;;;5043159;28;20442;-88
2023/08/06 09:08:03;;;;;;;0.83;0.80;;;20.90;1.00;;;;;;5051455;28;20455;-88
2023/08/06 09:10:36;;;;;;;4.87;2.60;;;20.90;1.00;;;;;;5068564;28;20486;-88
2023/08/06 09:13:06;;;;;;;1.63;0.80;;;21.00;1.00;;;;;;5070094;28;20987;-88
2023/08/06 09:15:58;;;;;;;0.80;0.80;;;20.90;1.00;;;;;;5063266;28;20423;-88
2023/08/06 09:18:38;;;;;;;0.60;0.60;;;20.90;1.00;;;;;;5042767;28;20438;-80
2023/08/06 09:21:04;;;;;;;0.97;0.50;;;20.70;1.00;;;;;;5053201;28;20429;-79
2023/08/06 09:24:08;;;;;;;4.80;0.70;;;20.10;1.00;;;;;;5053568;28;20418;-80
2023/08/06 09:26:34;;;;;;;12.20;5.20;;;19.80;1.00;;;;;;5050989;28;20427;-80
2023/08/06 09:29:06;;;;;;;3.90;1.10;;;19.40;1.00;;;;;;5044490;28;20483;-79
2023/08/06 09:31:45;;;;;;;0.93;0.77;;;19.10;1.00;;;;;;5044744;28;20434;-81
2023/08/06 09:34:34;;;;;;;6.53;1.23;;;19.00;1.00;;;;;;5049603;28;20931;-80
2023/08/06 09:37:04;;;;;;;3.53;0.90;;;18.80;1.00;;;;;;5052528;28;20465;-79
2023/08/06 09:40:10;;;;;;;4.07;0.87;;;18.80;1.00;;;;;;5046582;28;20513;-79
2023/08/06 09:43:05;;;;;;;6.60;0.53;;;18.60;1.00;;;;;;5041197;28;20456;-79
2023/08/06 09:45:36;;;;;;;0.93;0.57;;;18.50;1.00;;;;;;5050978;28;20471;-76
2023/08/06 09:48:06;;;;;;;2.73;0.83;;;18.40;1.00;;;;;;5040270;28;20407;-76
2023/08/06 09:50:36;;;;;;;0.80;0.67;;;18.30;1.00;;;;;;5053599;28;20409;-82
2023/08/06 09:53:04;;;;;;;0.80;0.73;;;18.30;1.00;;;;;;5052404;28;20571;-82
2023/08/06 09:55:31;;;;;;;0.97;0.70;;;18.10;1.00;;;;;;5048983;28;20473;-82
2023/08/06 09:57:59;;;;;;;2.10;0.97;;;18.00;1.00;;;;;;5044603;28;20437;-82
2023/08/06 10:00:25;;;;;;;13.53;5.93;;;18.10;1.00;;;;;;5033606;28;20491;-82
2023/08/06 10:03:06;;;;;;;2.83;1.90;;;18.00;1.00;;;;;;5038909;28;20453;-81
2023/08/06 10:06:06;;;;;;;7.43;5.13;;;17.90;1.00;;;;;;5035868;28;20412;-81
2023/08/06 10:08:34;;;;;;;3.80;1.30;;;17.90;1.00;;;;;;5039499;28;20423;-81
2023/08/06 10:11:34;;;;;;;2.53;1.00;;;17.90;1.00;;;;;;5043313;28;20417;-81
2023/08/06 10:14:46;;;;;;;2.30;1.00;;;18.10;1.00;;;;;;5057041;28;20535;-80
2023/08/06 10:17:31;;;;;;;0.80;0.70;;;18.30;1.00;;;;;;5050471;28;20451;-80
2023/08/06 10:23:55;;;;;;;1.33;0.80;;;18.80;1.00;;;;;;5039150;28;20466;-77
2023/08/06 10:26:46;;;;;;;2.30;0.70;;;19.20;1.00;;;;;;5056588;28;20558;-77
2023/08/06 10:29:37;;;;;;;0.77;0.67;;;19.30;1.00;;;;;;5054763;28;20442;-77
2023/08/06 10:32:51;;;;;;;2.03;0.80;;;19.50;1.00;;;;;;5049005;28;20406;-77
2023/08/06 10:39:16;;;;;;;0.83;0.83;;;20.10;1.00;;;;;;5038706;28;20511;-83
2023/08/06 10:41:44;;;;;;;0.80;0.80;;;20.20;1.00;;;;;;5036637;28;20450;-80
2023/08/06 10:47:39;;;;;;;1.37;1.00;;;20.60;1.00;;;;;;5055691;28;20523;-80
2023/08/06 10:53:47;;;;;;;1.63;0.60;;;21.10;1.00;;;;;;5046360;28;20395;-79
2023/08/06 10:56:27;;;;;;;3.07;1.43;;;21.70;1.00;;;;;;5055109;28;20448;-79
2023/08/06 10:59:16;;;;;;;33.40;5.23;;;21.80;1.00;;;;;;5052175;28;21223;-90
2023/08/06 11:01:53;;;;;;;1.80;0.77;;;21.70;1.00;;;;;;5049149;28;20462;-90
2023/08/06 11:04:47;;;;;;;1.07;0.87;;;22.00;1.00;;;;;;5036012;28;20431;-88
2023/08/06 11:07:13;;;;;;;2.73;1.13;;;22.10;1.00;;;;;;5036874;28;20476;-79
2023/08/06 11:09:40;;;;;;;0.93;0.70;;;22.10;1.00;;;;;;5055532;28;20502;-79
2023/08/06 11:12:10;;;;;;;5.67;0.70;;;22.30;1.00;;;;;;5055604;28;20441;-84
2023/08/06 11:14:40;;;;;;;0.90;0.67;;;22.40;1.00;;;;;;5055673;28;20901;-79
2023/08/06 11:17:10;;;;;;;3.13;1.00;;;22.30;1.00;;;;;;5055616;28;20747;-80
2023/08/06 11:19:36;;;;;;;0.70;0.63;;;22.20;1.00;;;;;;5055728;28;20786;-80
2023/08/06 11:22:02;;;;;;;1.20;0.90;;;22.10;1.00;;;;;;5055788;28;20461;-80
2023/08/06 11:24:28;;;;;;;1.33;0.63;;;21.90;1.00;;;;;;5055485;28;20699;-79
2023/08/06 11:30:16;;;;;;;3.63;0.90;;;21.10;1.00;;;;;;5046626;28;20218;-78
2023/08/06 11:32:48;;;;;;;1.43;0.70;;;21.10;1.00;;;;;;5055063;28;20492;-78
2023/08/06 11:35:17;;;;;;;6.33;0.70;;;21.20;1.00;;;;;;5041268;28;20471;-78
2023/08/06 11:37:46;;;;;;;3.57;0.63;;;21.10;1.00;;;;;;5047838;28;20506;-78
2023/08/06 11:40:17;;;;;;;0.60;0.50;;;20.40;1.00;;;;;;5053803;28;20515;-79
2023/08/06 11:42:42;;;;;;;4.10;0.77;;;20.30;1.00;;;;;;5049347;28;20821;-79
2023/08/06 11:45:12;;;;;;;2.63;0.70;;;20.10;1.00;;;;;;5054423;28;20425;-80
2023/08/06 11:47:40;;;;;;;1.77;0.70;;;19.80;1.00;;;;;;5054754;28;20219;-79
2023/08/06 11:50:52;;;;;;;0.93;0.60;;;19.80;1.00;;;;;;5055507;28;20423;-83
2023/08/06 12:00:06;;;;;;;4.10;0.70;;;18.70;1.00;;;;;;5047913;28;20405;-88
2023/08/06 12:05:54;;;;;;;9.80;0.83;;;18.00;1.00;;;;;;5035686;28;20516;-82
2023/08/06 12:09:04;;;;;;;0.50;0.43;;;17.50;1.00;;;;;;5051503;28;20890;-81
2023/08/06 12:12:04;;;;;;;0.93;0.63;;;17.30;1.00;;;;;;5052237;28;20186;-81
2023/08/06 12:17:51;;;;;;;0.70;0.67;;;17.10;1.00;;;;;;5053271;28;20905;-78
2023/08/06 12:20:23;;;;;;;0.50;0.50;;;16.90;1.00;;;;;;5042596;28;20416;-79
2023/08/06 12:26:11;;;;;;;0.60;0.60;;;17.00;1.00;;;;;;5053754;28;21115;-78
2023/08/06 12:28:37;;;;;;;2.40;0.50;;;17.00;1.00;;;;;;5053033;28;20427;-78
2023/08/06 12:31:05;;;;;;;0.57;0.50;;;17.10;1.00;;;;;;5052604;28;20705;-79
2023/08/06 12:33:30;;;;;;;0.93;0.60;;;17.40;1.00;;;;;;5042830;28;20581;-77
2023/08/06 12:36:04;;;;;;;1.20;0.47;;;17.80;1.00;;;;;;5051111;28;20446;-79
2023/08/06 12:38:46;;;;;;;0.50;0.50;;;18.00;1.00;;;;;;5050410;28;20213;-80
2023/08/06 12:41:59;;;;;;;1.53;0.57;;;18.20;1.00;;;;;;5036831;28;20397;-80
2023/08/06 12:47:46;;;;;;;1.03;0.50;;;18.40;1.00;;;;;;5053851;28;20448;-78
2023/08/06 12:53:33;;;;;;;0.80;0.53;;;18.30;1.00;;;;;;5033849;28;20693;-79
2023/08/06 12:56:40;;;;;;;1.37;0.60;;;18.30;1.00;;;;;;5042851;28;20420;-80
2023/08/06 12:59:36;;;;;;;5.40;0.50;;;18.20;1.00;;;;;;5045433;28;20184;-78
2023/08/06 13:02:02;;;;;;;0.63;0.50;;;18.30;1.00;;;;;;5051060;28;20460;-78
2023/08/06 13:05:06;;;;;;;2.50;0.60;;;18.30;1.00;;;;;;5033898;28;20384;-79
2023/08/06 13:10:53;;;;;;;1.10;0.60;;;18.10;1.00;;;;;;5033810;28;20452;-85
2023/08/06 13:16:58;;;;;;;0.60;0.50;;;18.10;1.00;;;;;;5053501;28;20198;-85
2023/08/06 13:19:40;;;;;;;1.83;0.60;;;17.60;1.00;;;;;;5046604;28;20519;-88
2023/08/06 13:22:40;;;;;;;3.23;0.70;;;17.60;1.00;;;;;;5049975;28;20461;-86
2023/08/06 13:25:46;;;;;;;3.90;0.60;;;17.70;1.00;;;;;;5042074;28;20433;-86
2023/08/06 13:31:36;;;;;;;0.50;0.50;;;17.60;1.00;;;;;;5049489;28;20415;-85
2023/08/06 13:34:22;;;;;;;0.60;0.60;;;17.20;1.00;;;;;;5058081;28;20428;-82
2023/08/06 13:40:10;;;;;;;1.07;0.50;;;17.20;1.00;;;;;;5043982;28;20399;-79
2023/08/06 13:43:10;;;;;;;0.80;0.50;;;17.00;1.00;;;;;;5053472;28;20448;-80
2023/08/06 13:46:15;;;;;;;0.60;0.60;;;17.00;1.00;;;;;;5055664;28;20415;-78
2023/08/06 13:48:41;;;;;;;1.23;0.70;;;16.80;1.00;;;;;;5051409;28;20816;-78
2023/08/06 13:54:58;;;;;;;0.70;0.70;;;16.60;1.00;;;;;;5045718;28;20544;-88
2023/08/06 14:07:30;;;;;;;2.40;0.80;;;16.60;1.00;;;;;;5056963;28;20490;-85
2023/08/06 14:13:30;;;;;;;324.53;111.40;;;16.80;1.00;;;;;;5054141;28;20599;-83
2023/08/06 14:16:34;;;;;;;2.97;1.10;;;16.80;1.00;;;;;;5054893;28;20450;-85
2023/08/06 14:19:04;;;;;;;1.40;0.90;;;16.60;1.00;;;;;;5048656;28;20459;-84
2023/08/06 14:24:53;;;;;;;215.33;82.37;;;16.70;1.00;;;;;;5056501;28;20827;-79
2023/08/06 14:34:52;;;;;;;1.83;1.10;;;16.70;1.00;;;;;;5051678;28;20425;-80
2023/08/06 14:37:52;;;;;;;4.87;1.33;;;16.80;1.00;;;;;;5052592;28;20426;-85
2023/08/06 14:47:01;;;;;;;3.97;0.97;;;16.90;1.00;;;;;;5055578;28;20410;-83
2023/08/06 14:53:02;;;;;;;11.17;1.83;;;17.10;1.00;;;;;;5036627;28;20201;-78
2023/08/06 14:55:28;;;;;;;3.10;0.90;;;17.20;1.00;;;;;;5047086;28;20515;-78
2023/08/06 14:57:54;;;;;;;2.60;1.07;;;17.20;1.00;;;;;;5040139;28;20928;-77
2023/08/06 15:00:34;;;;;;;8.23;1.47;;;17.20;1.00;;;;;;5054470;28;20452;-78
2023/08/06 15:03:00;;;;;;;8.80;1.60;;;17.10;1.00;;;;;;5055364;28;20671;-78
2023/08/06 15:05:26;;;;;;;2.90;1.47;;;17.10;1.00;;;;;;5050464;28;20411;-78
2023/08/06 15:07:52;;;;;;;1.53;1.00;;;17.00;1.00;;;;;;5047943;28;20185;-85
2023/08/06 15:10:40;;;;;;;5.63;1.67;;;16.90;1.00;;;;;;5054540;28;20169;-87
2023/08/06 15:13:10;;;;;;;31.80;11.93;;;16.70;1.00;;;;;;5055062;28;20409;-87
2023/08/06 15:19:16;;;;;;;7.37;2.80;;;16.60;1.00;;;;;;5055774;28;20899;-87
2023/08/06 15:21:59;;;;;;;5.17;2.20;;;16.60;1.00;;;;;;5055146;28;20450;-86
2023/08/06 15:25:04;;;;;;;5.53;1.87;;;16.60;1.00;;;;;;5055488;28;20894;-86
2023/08/06 15:27:30;;;;;;;6.00;2.13;;;16.60;1.00;;;;;;5051565;28;20420;-87
2023/08/06 15:30:11;;;;;;;13.20;2.70;;;16.50;1.00;;;;;;5049433;28;20432;-89
2023/08/06 15:35:59;;;;;;;442.37;149.83;;;16.70;1.00;;;;;;5043141;28;20443;-89
2023/08/06 15:38:28;;;;;;;8.07;1.80;;;16.80;1.00;;;;;;5051919;28;20452;-77
2023/08/06 15:41:16;;;;;;;3.47;0.90;;;16.80;1.00;;;;;;5055555;28;20726;-77
2023/08/06 15:43:53;;;;;;;0.80;0.50;;;16.80;1.00;;;;;;5055255;28;20419;-77
2023/08/06 15:46:18;;;;;;;3.90;0.87;;;16.80;1.00;;;;;;5055045;28;20407;-78
2023/08/06 15:52:06;;;;;;;0.47;0.40;;;16.90;1.00;;;;;;5054910;28;20547;-79
2023/08/06 15:57:53;;;;;;;6.83;1.23;;;16.90;1.00;;;;;;5048136;28;20485;-87
2023/08/06 16:07:03;;;;;;;2.83;0.80;;;16.80;1.00;;;;;;5034371;28;20413;-87
2023/08/06 16:09:29;;;;;;;5.77;1.03;;;16.80;1.00;;;;;;5053188;28;20409;-77
2023/08/06 16:15:19;;;;;;;8.80;1.43;;;16.80;1.00;;;;;;5049360;28;20687;-78
2023/08/06 16:17:48;;;;;;;4.30;0.87;;;16.80;1.00;;;;;;5040749;28;20926;-78
2023/08/06 16:20:14;;;;;;;9.60;1.70;;;16.70;1.00;;;;;;5052010;28;20400;-77
2023/08/06 16:26:28;;;;;;;5.40;1.00;;;16.70;1.00;;;;;;5035030;28;20375;-86
2023/08/06 16:29:05;;;;;;;4.60;0.90;;;16.70;1.00;;;;;;5048736;28;20518;-86
2023/08/06 16:34:53;;;;;;;10.77;1.47;;;;;;;;;;5034723;28;20419;-85
2023/08/06 16:37:22;;;;;;;5.57;1.10;;;16.50;1.00;;;;;;5035354;28;20732;-81
2023/08/06 16:47:05;;;;;;;3.27;0.87;;;16.50;1.00;;;;;;5054022;28;20403;-81
2023/08/06 16:50:22;;;;;;;3.30;1.10;;;16.40;1.00;;;;;;5053766;28;20434;-80
2023/08/06 16:53:34;;;;;;;7.60;1.50;;;16.30;1.00;;;;;;5044770;28;20411;-81
2023/08/06 16:56:29;;;;;;;4.20;1.00;;;16.30;1.00;;;;;;5046227;28;20405;-81
2023/08/06 16:58:55;;;;;;;2.33;0.80;;;16.10;1.00;;;;;;5053603;28;20377;-80
2023/08/06 17:01:46;;;;;;;4.00;0.87;;;16.10;1.00;;;;;;5050465;28;20405;-81
2023/08/06 17:04:17;;;;;;;4.70;1.03;;;15.90;1.00;;;;;;5033821;28;20160;-80
2023/08/06 17:07:00;;;;;;;9.80;1.13;;;15.70;1.00;;;;;;5050985;28;20412;-80
2023/08/06 17:09:25;;;;;;;4.97;1.00;;;15.70;1.00;;;;;;5053811;28;20510;-80
2023/08/06 17:15:58;;;;;;;2.50;0.80;;;15.60;1.00;;;;;;5053110;28;20182;-80
2023/08/06 17:31:51;;;;;;;6.30;1.40;;;15.20;1.00;;;;;;5050759;28;20461;-81
2023/08/06 17:34:35;;;;;;;4.20;1.00;;;15.10;1.00;;;;;;5053305;28;20357;-80
2023/08/06 17:37:04;;;;;;;210.93;57.30;;;15.10;1.00;;;;;;5046961;28;20445;-80
2023/08/06 17:39:31;;;;;;;5.33;1.50;;;15.00;1.00;;;;;;5052091;28;20418;-79
2023/08/06 17:41:56;;;;;;;9.73;1.80;;;15.00;1.00;;;;;;5045620;28;20455;-79
2023/08/06 17:44:30;;;;;;;1.77;0.73;;;15.10;1.00;;;;;;5039399;28;20940;-79
2023/08/06 17:47:10;;;;;;;4.77;0.90;;;15.00;1.00;;;;;;5041296;28;20168;-78
2023/08/06 17:52:58;;;;;;;4.83;1.30;;;15.10;1.00;;;;;;5043064;28;20414;-78
2023/08/06 17:55:25;;;;;;;4.37;1.20;;;15.00;1.00;;;;;;5038327;28;20396;-80
2023/08/06 17:58:08;;;;;;;5.40;1.63;;;15.10;1.00;;;;;;5052993;28;20168;-80
2023/08/06 18:04:40;;;;;;;6.07;1.83;;;15.10;1.00;;;;;;5046607;28;20427;-81
2023/08/06 18:07:34;;;;;;;15.33;2.63;;;15.10;1.00;;;;;;5053150;28;20517;-81
2023/08/06 18:10:00;;;;;;;3.13;0.93;;;15.20;1.00;;;;;;5037262;28;20422;-78
2023/08/06 18:15:59;;;;;;;4.47;1.13;;;15.10;1.00;;;;;;5050766;28;20194;-79
2023/08/06 18:19:04;;;;;;;10.40;1.33;;;15.10;1.00;;;;;;5052983;28;20417;-79
2023/08/06 18:21:52;;;;;;;3.17;0.90;;;15.10;1.00;;;;;;5032955;28;20394;-78
2023/08/06 18:27:43;;;;;;;5.43;1.23;;;15.10;1.00;;;;;;5041851;28;20460;-81
2023/08/06 18:30:28;;;;;;;3.80;0.90;;;15.10;1.00;;;;;;5049293;28;20410;-82
2023/08/06 18:33:04;;;;;;;6.63;1.27;;;15.10;1.00;;;;;;5054209;28;20809;-82
2023/08/06 18:35:42;;;;;;;3.90;1.10;;;15.10;1.00;;;;;;5051704;28;20476;-81
2023/08/06 18:44:59;;;;;;;2.87;0.87;;;15.00;1.00;;;;;;5056139;28;20383;-79
2023/08/06 18:47:29;;;;;;;4.30;1.03;;;15.00;1.00;;;;;;5053422;28;20425;-79
2023/08/06 18:50:11;;;;;;;6.57;1.37;;;14.90;1.00;;;;;;5043987;28;20430;-79
2023/08/06 18:52:37;;;;;;;10.17;1.83;;;14.90;1.00;;;;;;5056175;28;20390;-79
2023/08/06 18:58:25;;;;;;;1.67;0.80;;;14.90;1.00;;;;;;5046520;28;20430;-79
2023/08/06 19:01:34;;;;;;;4.93;1.00;;;14.90;1.00;;;;;;5055940;28;20401;-79
2023/08/06 19:04:00;;;;;;;2.40;1.00;;;14.90;1.00;;;;;;5055471;28;20184;-78
2023/08/06 19:06:59;;;;;;;4.40;1.13;;;14.90;1.00;;;;;;5054280;28;20632;-80
2023/08/06 19:09:25;;;;;;;1.27;0.77;;;14.90;1.00;;;;;;5054928;28;20206;-78
2023/08/06 19:11:50;;;;;;;2.10;0.70;;;14.90;1.00;;;;;;5049363;28;20399;-79
2023/08/06 19:14:34;;;;;;;2.97;0.93;;;14.90;1.00;;;;;;5049319;28;20172;-78
2023/08/06 19:17:34;;;;;;;3.40;1.00;;;14.90;1.00;;;;;;5051546;28;20167;-79
2023/08/06 19:27:16;;;;;;;8.67;1.20;;;14.80;1.00;;;;;;5044681;28;20417;-78
2023/08/06 19:33:07;;;;;;;2.63;0.70;;;14.70;1.00;;;;;;5055779;28;20423;-78
2023/08/06 19:36:22;;;;;;;0.83;0.60;;;14.70;1.00;;;;;;5055624;28;20812;-78
2023/08/06 19:42:58;;;;;;;4.20;1.00;;;14.80;1.00;;;;;;5051464;28;20499;-80
2023/08/06 19:45:24;;;;;;;3.43;0.80;;;14.80;1.00;;;;;;5055241;28;20407;-80
2023/08/06 19:54:33;;;;;;;0.50;0.40;;;14.70;1.00;;;;;;5055150;28;20397;-81
2023/08/06 19:56:59;;;;;;;2.73;0.70;;;14.60;1.00;;;;;;5054090;28;20422;-80
2023/08/06 19:59:24;;;;;;;4.57;1.00;;;14.60;1.00;;;;;;5047416;28;20696;-83
2023/08/06 20:02:28;;;;;;;2.77;0.70;;;14.60;1.00;;;;;;5045844;28;20475;-80
2023/08/06 20:08:16;;;;;;;4.40;0.70;;;14.50;1.00;;;;;;5053053;28;20476;-81
2023/08/06 20:10:51;;;;;;;9.83;1.17;;;14.40;1.00;;;;;;5046039;28;20416;-81
2023/08/06 20:13:17;;;;;;;1.33;0.67;;;14.50;1.00;;;;;;5042724;28;20434;-83
2023/08/06 20:16:05;;;;;;;3.03;0.90;;;14.50;1.00;;;;;;5037713;28;20414;-82
2023/08/06 20:18:35;;;;;;;8.13;1.30;;;14.50;1.00;;;;;;5043126;28;20936;-82
2023/08/06 20:21:52;;;;;;;2.20;0.73;;;14.50;1.00;;;;;;5052782;28;20474;-81
2023/08/06 20:27:40;;;;;;;4.00;0.83;;;14.30;1.00;;;;;;5054321;28;20401;-80
2023/08/06 20:33:28;;;;;;;6.87;0.93;;;14.20;1.00;;;;;;5034515;28;20168;-80